Flight Track Log - Related Links

Times and Time Zones

All times are in EDT time to prevent confusion due to time zone crossing. See the GGA1 flight status page for this flight to view local times or setup timezone preferences in your user account.

Time Position Orientation Groundspeed Altitude Reporting Facility
EDT Latitude Longitude Course Direction KTS MPH feet Rate Location/Type
Thu 01:39:07 PM 33.9833 -83.3667 345° North 154 177 2,600  Level Atlanta TRACON
Thu 01:40:13 PM 34.0333 -83.3833 345° North 182 209 4,700 1,857 Climbing Atlanta TRACON
Thu 01:41:13 PM 34.0833 -83.4000 345° North 190 219 6,500 1,850 Climbing Atlanta TRACON
Thu 01:42:13 PM 34.1333 -83.4167 345° North 191 220 8,400 1,082 Climbing Atlanta TRACON
Thu 01:44:27 PM 34.2644 -83.4506 348° North 236 272 10,000 495 Climbing Atlanta Center
Thu 01:45:27 PM 34.3378 -83.4728 346° North 266 306 10,000  Level Atlanta Center
Thu 01:46:27 PM 34.4172 -83.4975 346° North 266 306 10,000  Level Atlanta Center
Thu 01:47:27 PM 34.4944 -83.5169 348° North 271 312 10,000 633 Level Atlanta Center
Thu 01:49:27 PM 34.6344 -83.5617 345° North 256 295 11,900 700 Climbing Atlanta Center
Thu 01:50:27 PM 34.7075 -83.5814 347° North 255 293 12,100 1,050 Climbing Atlanta Center
Thu 01:51:27 PM 34.7786 -83.6039 345° North 265 305 14,000 950 Climbing Atlanta Center
Thu 01:52:27 PM 34.8517 -83.6236 348° North 256 295 14,000  Level Atlanta Center
Thu 01:53:27 PM 34.9144 -83.6411 347° North 276 318 14,000 -50 Level Atlanta Center
Thu 01:54:27 PM 35.0125 -83.6711 346° North 289 333 13,900 -50 Descending Atlanta Center
Thu 01:55:27 PM 35.0919 -83.6986 344° North 294 338 13,900 4,050 Level Atlanta Center
Thu 01:56:27 PM 35.1628 -83.7211 345° North 294 338 22,000 2,000 Climbing Atlanta Center
Thu 01:57:27 PM 35.2192 -83.7361 348° North 251 289 17,900 -1,300 Descending Atlanta Center
Thu 01:58:27 PM 35.2797 -83.7539 347° North 221 254 19,400 1,250 Climbing Atlanta Center
Thu 01:59:27 PM 35.3403 -83.7714 347° North 221 254 20,400 1,250 Climbing Atlanta Center
Thu 02:00:27 PM 35.4072 -83.7892 348° North 228 262 21,900 800 Climbing Atlanta Center
Thu 02:01:27 PM 35.4761 -83.8144 343° North 240 276 22,000 50 Climbing Atlanta Center
Thu 02:02:27 PM 35.5533 -83.8369 347° North 265 305 22,000  Level Atlanta Center
Thu 02:03:27 PM 35.6367 -83.8600 347° North 286 329 22,000  Level Atlanta Center
Thu 02:04:27 PM 35.7203 -83.8853 346° North 298 343 22,000  Level Atlanta Center
Thu 02:05:27 PM 35.8017 -83.9108 346° North 298 343 22,000  Level Atlanta Center
Thu 02:06:27 PM 35.8850 -83.9361 346° North 298 343 22,000  Level Atlanta Center
Thu 02:07:27 PM 35.9686 -83.9644 345° North 298 343 22,000  Level Atlanta Center
Thu 02:08:27 PM 36.0542 -83.9872 348° North 298 343 22,000  Level Atlanta Center
Thu 02:09:27 PM 36.1397 -84.0156 345° North 298 343 22,000  Level Atlanta Center
Thu 02:11:11 PM 36.2858 -84.0572 347° North 309 356 22,000  Level Indianapolis Center
Thu 02:12:13 PM 36.3700 -84.0817 347° North 311 358 22,000  Level Indianapolis Center
Thu 02:13:15 PM 36.4536 -84.1069 346° North 310 357 22,000  Level Indianapolis Center
Thu 02:14:17 PM 36.5344 -84.1314 346° North 312 359 22,000  Level Indianapolis Center
Thu 02:15:18 PM 36.6328 -84.1636 345° North 312 359 22,000 -293 Level Indianapolis Center
Thu 02:16:20 PM 36.7186 -84.1911 346° North 316 364 21,400 -823 Descending Indianapolis Center
Thu 02:17:22 PM 36.8086 -84.2192 346° North 329 379 20,300 -1,113 Descending Indianapolis Center
Thu 02:18:24 PM 36.9044 -84.2497 346° North 348 400 19,100 -1,171 Descending Indianapolis Center
Thu 02:19:25 PM 36.9967 -84.2753 348° North 340 391 17,900 -1,220 Descending Indianapolis Center
Thu 02:20:27 PM 37.0889 -84.3036 346° North 339 390 16,600 -1,306 Descending Indianapolis Center
Thu 02:21:29 PM 37.1769 -84.3347 344° North 332 382 15,200 -1,500 Descending Indianapolis Center
Thu 02:22:31 PM 37.2819 -84.3697 345° North 334 384 13,500 -1,659 Descending Indianapolis Center
Thu 02:23:32 PM 37.3717 -84.3961 347° North 331 381 11,800 -1,171 Descending Indianapolis Center
Thu 02:24:34 PM 37.4547 -84.4225 346° North 315 362 11,100 -339 Descending Indianapolis Center
Thu 02:25:36 PM 37.5253 -84.4444 346° North 271 312 11,100 -290 Level Indianapolis Center
Thu 02:26:38 PM 37.5975 -84.4700 344° North 268 308 10,500 -1,016 Descending Indianapolis Center
Thu 02:27:40 PM 37.6814 -84.4947 347° North 298 343 9,000 -1,403 Descending Indianapolis Center
Thu 02:28:42 PM 37.7658 -84.5192 347° North 307 353 7,600 -1,500 Descending Indianapolis Center
Thu 02:29:44 PM 37.8647 -84.5431 349° North 308 354 5,900 -1,610 Descending Indianapolis Center
Thu 02:30:45 PM 37.9392 -84.5464 358° North 291 335 4,300 -1,171 Descending Indianapolis Center
Thu 02:31:47 PM 38.0003 -84.5289 13° North 256 295 3,500 -823 Descending Indianapolis Center
Thu 02:32:49 PM 38.0481 -84.5464 344° North 209 241 2,600 -871 Descending Indianapolis Center
Thu 02:34:00 PM 38.0333 -84.6000 270° West  Level FlightAware Approximate
Thu 02:41:00 PM 38.0368 -84.6086 270° West  Level Estimated
Thu 02:42:00 PM 38.0368 -84.6086 270° West  Level Estimated

Login

Don't have an account? Register now (free) for customized features, flight alerts, and more!